Kearsarge, Michigan
Current Conditions -  °F | °C
As of 7:53 PM on Sunday 21 Dec 2014 (Local Time) from KCMX Reporting Station
Light Snow Light Snow  
Wind Chill: 24°   Ceiling: 200
Heat Index: 32°   Visibility: 0.75mi
Dew Point: 31°   Wind: 9mph
Humidity: 96%   Direction: 160°SSE
Pressure: 29.87"   Gusts: NA
Location:  47.27°N, 88.42°W
Report Text: KCMX 220053Z AUTO 16008KT 3/4SM -SN BR OVC002 00/M01 A2987 RMK AO2 SLP130 P0003 T00001006
Loading
Personal Weather Stations






























Interactive Weather Map New forecast layout! Learn more

10-Day Weather Forecast

Advertisements
Track Severe Weather on mobile